createdAt,value
2019-03-29T00:00:41.445Z,11.00
2019-03-29T00:03:30.918Z,10.10
2019-03-29T00:06:20.091Z,10.97
2019-03-29T00:12:16.671Z,8.93
2019-03-29T00:14:58.469Z,9.70
2019-03-29T00:17:28.735Z,10.13
2019-03-29T00:20:18.438Z,9.37
2019-03-29T00:22:49.069Z,9.30
2019-03-29T00:25:19.298Z,10.10
2019-03-29T00:31:22.578Z,10.47
2019-03-29T00:37:26.473Z,10.70
2019-03-29T00:40:15.639Z,11.07
2019-03-29T00:43:04.928Z,17.90
2019-03-29T00:45:35.461Z,20.10
2019-03-29T01:04:35.429Z,9.43
2019-03-29T01:07:17.190Z,10.10
2019-03-29T01:09:48.714Z,10.27
2019-03-29T01:12:19.028Z,10.07
2019-03-29T01:14:49.309Z,11.17
2019-03-29T01:17:38.507Z,9.83
2019-03-29T01:23:36.199Z,10.27
2019-03-29T01:29:39.638Z,10.50
2019-03-29T01:32:28.823Z,10.67
2019-03-29T01:35:18.062Z,11.63
2019-03-29T01:37:48.964Z,10.90
2019-03-29T01:40:38.144Z,10.80
2019-03-29T01:49:54.972Z,11.20
2019-03-29T01:52:44.242Z,12.50
2019-03-29T01:55:33.489Z,11.60
2019-03-29T02:01:29.389Z,11.10
2019-03-29T02:04:11.715Z,12.73
2019-03-29T02:06:53.544Z,10.57
2019-03-29T02:09:35.647Z,11.83
2019-03-29T02:12:17.139Z,11.23
2019-03-29T02:15:02.142Z,11.03
2019-03-29T02:17:43.840Z,10.47
2019-03-29T02:20:25.065Z,10.27
2019-03-29T02:23:07.342Z,11.83
2019-03-29T02:25:48.902Z,10.43
2019-03-29T02:28:31.270Z,10.77
2019-03-29T02:31:13.079Z,10.93
2019-03-29T02:33:54.303Z,10.00
2019-03-29T02:36:36.702Z,11.23
2019-03-29T02:39:21.560Z,11.00
2019-03-29T02:42:03.707Z,10.73
2019-03-29T02:44:45.734Z,9.63
2019-03-29T02:47:27.451Z,10.53
2019-03-29T02:50:09.170Z,11.10
2019-03-29T02:52:51.195Z,10.93
2019-03-29T02:55:33.249Z,11.80
2019-03-29T02:58:14.798Z,10.27
2019-03-29T03:00:56.719Z,10.90
2019-03-29T03:03:39.149Z,11.67
2019-03-29T03:06:21.048Z,11.60
2019-03-29T03:15:04.442Z,12.60
2019-03-29T03:17:46.147Z,10.80
2019-03-29T03:20:27.755Z,10.97
2019-03-29T03:23:09.938Z,12.97
2019-03-29T03:25:51.255Z,10.53
2019-03-29T03:28:33.461Z,11.43
2019-03-29T03:31:15.736Z,11.77
2019-03-29T03:33:57.909Z,11.53
2019-03-29T03:36:39.170Z,10.90
2019-03-29T03:39:31.559Z,11.63
2019-03-29T03:42:05.307Z,11.20
2019-03-29T03:44:47.277Z,12.27
2019-03-29T03:47:29.418Z,12.13
2019-03-29T03:50:11.724Z,11.50
2019-03-29T03:52:53.239Z,12.10
2019-03-29T03:55:35.216Z,11.50
2019-03-29T03:58:17.306Z,11.27
2019-03-29T04:00:58.849Z,12.47
2019-03-29T04:03:40.883Z,11.73
2019-03-29T04:06:11.199Z,12.50
2019-03-29T04:09:00.626Z,12.07
2019-03-29T04:11:30.887Z,13.80
2019-03-29T04:14:20.278Z,11.93
2019-03-29T04:20:16.199Z,12.70
2019-03-29T04:22:57.873Z,12.63
2019-03-29T04:25:39.943Z,11.53
2019-03-29T04:28:21.710Z,11.90
2019-03-29T04:31:03.203Z,14.20
2019-03-29T04:33:33.819Z,12.03
2019-03-29T04:36:23.248Z,13.30
2019-03-29T04:39:12.598Z,12.90
2019-03-29T04:52:03.136Z,11.60
2019-03-29T04:54:52.816Z,20.47
2019-03-29T05:07:18.030Z,15.83
2019-03-29T05:10:20.495Z,12.77
2019-03-29T05:16:13.902Z,14.93
2019-03-29T05:18:55.691Z,14.20
2019-03-29T05:21:37.779Z,14.23
2019-03-29T05:24:19.673Z,13.43
2019-03-29T05:27:02.202Z,15.03
2019-03-29T05:29:44.418Z,13.67
2019-03-29T05:32:26.593Z,16.40
2019-03-29T05:35:08.382Z,15.27
2019-03-29T05:37:49.930Z,15.73
2019-03-29T05:40:35.255Z,15.00
2019-03-29T05:43:15.154Z,15.57
2019-03-29T05:45:56.491Z,15.37
2019-03-29T05:48:38.042Z,14.93
2019-03-29T05:51:19.965Z,15.80
2019-03-29T05:54:02.084Z,15.27
2019-03-29T05:56:43.755Z,16.87
2019-03-29T05:59:25.316Z,16.63
2019-03-29T06:05:06.131Z,18.93
2019-03-29T06:07:47.424Z,17.07
2019-03-29T06:10:28.895Z,16.83
2019-03-29T06:13:11.510Z,16.47
2019-03-29T06:15:53.350Z,17.10
2019-03-29T06:18:34.690Z,17.27
2019-03-29T06:21:16.642Z,16.43
2019-03-29T06:23:58.926Z,16.90
2019-03-29T06:26:41.168Z,19.20
2019-03-29T06:29:23.175Z,22.27
2019-03-29T06:32:05.101Z,18.27
2019-03-29T06:34:46.553Z,16.77
2019-03-29T06:37:56.521Z,16.40
2019-03-29T06:43:59.958Z,18.23
2019-03-29T06:46:49.372Z,15.83
2019-03-29T06:49:38.947Z,17.57
2019-03-29T06:52:28.710Z,15.67
2019-03-29T06:55:18.238Z,16.13
2019-03-29T07:00:56.940Z,16.70
2019-03-29T07:06:42.036Z,15.03
2019-03-29T07:09:31.202Z,14.53
2019-03-29T07:12:20.397Z,16.83
2019-03-29T07:15:10.079Z,32.33
2019-03-29T07:17:40.342Z,51.03
2019-03-29T07:23:37.826Z,14.17
2019-03-29T07:26:27.086Z,13.87
2019-03-29T07:29:16.336Z,14.77
2019-03-29T07:35:19.402Z,14.13
2019-03-29T07:38:08.841Z,12.97
2019-03-29T07:40:58.323Z,14.47
2019-03-29T07:43:47.754Z,14.03
2019-03-29T07:49:32.039Z,15.63
2019-03-29T07:52:21.237Z,15.03
2019-03-29T07:54:51.703Z,14.10
2019-03-29T07:57:41.155Z,13.47
2019-03-29T08:00:30.635Z,15.60
2019-03-29T08:03:21.263Z,12.60
2019-03-29T08:06:30.559Z,14.23
2019-03-29T08:09:39.090Z,13.13
2019-03-29T08:18:48.196Z,11.93
2019-03-29T08:21:18.696Z,14.23
2019-03-29T08:24:08.042Z,12.50
2019-03-29T08:26:57.330Z,13.07
2019-03-29T08:29:46.645Z,11.80
2019-03-29T08:35:50.254Z,10.83
2019-03-29T08:38:39.554Z,10.47
2019-03-29T08:41:29.069Z,10.13
2019-03-29T08:44:18.281Z,11.33
2019-03-29T08:47:07.794Z,10.33
2019-03-29T08:53:11.690Z,10.40
2019-03-29T08:56:01.119Z,9.53
2019-03-29T08:58:50.316Z,18.97
2019-03-29T09:01:40.174Z,11.23
2019-03-29T09:08:03.526Z,9.33
2019-03-29T09:10:52.966Z,8.10
2019-03-29T09:14:01.554Z,7.47
2019-03-29T09:16:43.735Z,9.07
2019-03-29T09:19:25.001Z,9.10
2019-03-29T09:22:07.194Z,10.63
2019-03-29T09:24:49.369Z,8.40
2019-03-29T09:27:32.098Z,10.30
2019-03-29T09:30:14.055Z,8.77
2019-03-29T09:32:56.071Z,9.67
2019-03-29T09:35:37.657Z,9.60
2019-03-29T09:38:19.835Z,12.40
2019-03-29T09:40:58.271Z,7.67
2019-03-29T09:44:00.486Z,7.20
2019-03-29T09:53:41.187Z,8.07
2019-03-29T09:56:48.730Z,8.00
2019-03-29T09:59:38.232Z,8.00
2019-03-29T10:02:08.601Z,8.93
2019-03-29T10:04:57.799Z,6.43
2019-03-29T10:10:22.942Z,6.20
2019-03-29T10:13:04.625Z,5.70
2019-03-29T10:15:34.882Z,6.47
2019-03-29T10:18:24.349Z,6.30
2019-03-29T10:21:16.999Z,5.43
2019-03-29T10:24:23.898Z,5.80
2019-03-29T10:34:09.450Z,4.80
2019-03-29T10:36:58.720Z,7.00
2019-03-29T10:39:48.231Z,6.37
2019-03-29T10:45:45.682Z,5.60
2019-03-29T10:48:34.881Z,5.77
2019-03-29T10:51:24.158Z,6.37
2019-03-29T10:57:21.963Z,7.30
2019-03-29T11:06:24.179Z,5.87
2019-03-29T11:09:13.700Z,5.60
2019-03-29T11:11:44.482Z,6.00
2019-03-29T11:14:33.690Z,6.50
2019-03-29T11:17:04.131Z,5.87
2019-03-29T11:20:12.603Z,6.53
2019-03-29T11:22:42.950Z,7.27
2019-03-29T11:25:32.230Z,7.50
2019-03-29T11:31:29.931Z,7.73
2019-03-29T11:34:20.985Z,6.97
2019-03-29T11:37:10.534Z,6.80
2019-03-29T11:39:59.739Z,6.73
2019-03-29T11:42:49.179Z,7.53
2019-03-29T11:45:38.698Z,6.80
2019-03-29T11:48:29.610Z,6.03
2019-03-29T11:51:38.270Z,7.60
2019-03-29T11:54:27.767Z,5.77
2019-03-29T12:00:24.547Z,5.63
2019-03-29T12:03:09.131Z,6.10
2019-03-29T12:05:49.674Z,6.53
2019-03-29T12:08:31.455Z,7.40
2019-03-29T12:11:13.147Z,7.03
2019-03-29T12:13:54.903Z,6.90
2019-03-29T12:16:37.094Z,10.33
2019-03-29T12:19:18.990Z,6.93
2019-03-29T12:22:00.406Z,7.00
2019-03-29T12:24:45.679Z,6.23
2019-03-29T12:27:27.469Z,6.03
2019-03-29T12:30:08.995Z,6.90
2019-03-29T12:32:50.910Z,6.57
2019-03-29T12:35:33.290Z,6.60
2019-03-29T12:38:14.934Z,7.07
2019-03-29T12:40:56.200Z,7.43
2019-03-29T12:43:37.650Z,7.53
2019-03-29T12:46:19.709Z,7.43
2019-03-29T12:49:01.930Z,6.90
2019-03-29T12:51:46.614Z,7.40
2019-03-29T12:54:27.934Z,7.67
2019-03-29T12:57:09.504Z,7.07
2019-03-29T12:59:51.305Z,7.63
2019-03-29T13:02:34.649Z,8.40
2019-03-29T13:05:16.544Z,7.77
2019-03-29T13:07:58.830Z,7.37
2019-03-29T13:10:42.662Z,7.63
2019-03-29T13:13:24.147Z,6.60
2019-03-29T13:16:06.454Z,8.07
2019-03-29T13:18:48.641Z,7.10
2019-03-29T13:21:29.849Z,7.30
2019-03-29T13:24:12.017Z,7.37
2019-03-29T13:26:54.465Z,9.30
2019-03-29T13:29:36.720Z,7.87
2019-03-29T13:32:18.621Z,9.40
2019-03-29T13:35:00.400Z,6.67
2019-03-29T13:37:42.514Z,15.03
2019-03-29T13:40:24.430Z,7.60
2019-03-29T13:43:09.543Z,7.10
2019-03-29T13:45:51.334Z,6.30
2019-03-29T13:48:33.151Z,6.00
2019-03-29T13:51:14.428Z,6.47
2019-03-29T13:53:56.275Z,6.80
2019-03-29T13:56:38.440Z,7.27
2019-03-29T13:59:21.061Z,6.07
2019-03-29T14:02:02.882Z,5.90
2019-03-29T14:04:44.387Z,5.83
2019-03-29T14:07:26.534Z,5.97
2019-03-29T14:10:09.031Z,6.97
2019-03-29T14:12:50.267Z,6.07
2019-03-29T14:15:32.386Z,6.17
2019-03-29T14:18:13.998Z,6.67
2019-03-29T14:20:44.338Z,7.63
2019-03-29T14:23:33.772Z,6.63
2019-03-29T14:26:23.202Z,7.07
2019-03-29T14:29:12.401Z,7.30
2019-03-29T14:35:14.335Z,8.30
2019-03-29T14:41:18.017Z,6.27
2019-03-29T14:44:07.470Z,5.80
2019-03-29T14:50:11.138Z,5.83
2019-03-29T14:53:00.355Z,7.23
2019-03-29T14:55:49.625Z,6.10
2019-03-29T14:58:20.042Z,7.37
2019-03-29T15:01:09.294Z,6.40
2019-03-29T15:03:39.816Z,19.77
2019-03-29T15:06:29.241Z,8.07
2019-03-29T15:12:25.821Z,6.53
2019-03-29T15:15:07.405Z,6.10
2019-03-29T15:17:49.579Z,7.17
2019-03-29T15:20:31.094Z,7.97
2019-03-29T15:23:13.204Z,6.60
2019-03-29T15:25:54.674Z,8.17
2019-03-29T15:28:37.625Z,8.43
2019-03-29T15:31:19.563Z,6.40
2019-03-29T15:33:50.022Z,6.53
2019-03-29T15:36:39.178Z,7.73
2019-03-29T15:39:09.909Z,7.43
2019-03-29T15:41:59.342Z,7.87
2019-03-29T15:44:48.694Z,8.93
2019-03-29T15:50:52.274Z,6.90
2019-03-29T15:56:55.846Z,7.57
2019-03-29T16:02:52.120Z,8.07
2019-03-29T16:05:33.630Z,7.53
2019-03-29T16:08:14.898Z,7.57
2019-03-29T16:10:56.756Z,7.10
2019-03-29T16:13:38.618Z,7.83
2019-03-29T16:16:20.665Z,9.23
2019-03-29T16:19:03.064Z,12.03
2019-03-29T16:21:44.851Z,6.93
2019-03-29T16:24:27.207Z,7.80
2019-03-29T16:27:08.852Z,7.67
2019-03-29T16:29:50.194Z,7.03
2019-03-29T16:32:20.751Z,7.23
2019-03-29T16:35:10.050Z,6.90
2019-03-29T16:37:59.563Z,7.50
2019-03-29T16:40:49.055Z,7.90
2019-03-29T16:43:38.277Z,8.10
2019-03-29T16:46:27.450Z,8.60
2019-03-29T16:49:16.781Z,10.97
2019-03-29T16:52:06.028Z,8.90
2019-03-29T16:54:55.222Z,9.57
2019-03-29T16:57:36.868Z,9.17
2019-03-29T17:00:18.805Z,8.20
2019-03-29T17:03:00.762Z,8.87
2019-03-29T17:05:31.074Z,9.23
2019-03-29T17:08:20.263Z,9.03
2019-03-29T17:11:09.761Z,8.43
2019-03-29T17:13:40.400Z,9.40
2019-03-29T17:16:30.745Z,8.50
2019-03-29T17:19:40.020Z,11.53
2019-03-29T17:22:10.234Z,9.17
2019-03-29T17:24:59.447Z,11.43
2019-03-29T17:27:51.924Z,8.97
2019-03-29T17:31:19.812Z,11.33
2019-03-29T17:34:09.009Z,10.27
2019-03-29T17:36:58.298Z,9.60
2019-03-29T17:39:47.494Z,9.40
2019-03-29T17:42:37.026Z,10.80
2019-03-29T17:45:26.217Z,17.83
2019-03-29T17:48:16.142Z,13.00
2019-03-29T17:51:05.467Z,9.07
2019-03-29T17:53:53.994Z,13.87
2019-03-29T18:00:11.434Z,10.43
2019-03-29T18:02:52.779Z,10.47
2019-03-29T18:08:33.957Z,11.33
2019-03-29T18:11:16.251Z,17.00
2019-03-29T18:13:58.330Z,13.60
2019-03-29T18:16:40.620Z,15.13
2019-03-29T18:19:22.583Z,17.03
2019-03-29T18:22:04.807Z,32.30
2019-03-29T18:24:47.151Z,16.13
2019-03-29T18:27:28.990Z,14.07
2019-03-29T18:30:11.096Z,16.27
2019-03-29T18:32:53.534Z,13.10
2019-03-29T18:35:35.903Z,13.57
2019-03-29T18:38:17.626Z,16.87
2019-03-29T18:40:59.704Z,12.90
2019-03-29T18:43:41.676Z,12.57
2019-03-29T18:46:23.825Z,12.70
2019-03-29T18:49:05.896Z,18.37
2019-03-29T18:51:48.130Z,12.53
2019-03-29T18:54:30.105Z,13.37
2019-03-29T18:57:11.548Z,14.23
2019-03-29T18:59:53.138Z,15.43
2019-03-29T19:02:35.277Z,16.17
2019-03-29T19:05:05.869Z,23.07
2019-03-29T19:07:55.150Z,52.33
2019-03-29T19:10:44.444Z,102.13
2019-03-29T19:16:58.329Z,16.13
2019-03-29T19:19:57.622Z,13.67
2019-03-29T19:29:15.921Z,15.13
2019-03-29T19:31:46.233Z,14.97
2019-03-29T19:37:44.008Z,16.40
2019-03-29T19:40:33.196Z,14.90
2019-03-29T19:49:50.706Z,18.50
2019-03-29T19:52:40.048Z,15.13
2019-03-29T19:55:29.316Z,21.73
2019-03-29T19:58:11.554Z,19.77
2019-03-29T20:00:53.605Z,18.13
2019-03-29T20:03:36.032Z,18.70
2019-03-29T20:06:17.986Z,13.70
2019-03-29T20:08:48.433Z,13.90
2019-03-29T20:11:37.724Z,15.07
2019-03-29T20:14:08.143Z,13.40
2019-03-29T20:16:57.338Z,14.00
2019-03-29T20:26:09.726Z,14.63
2019-03-29T20:28:59.728Z,14.20
2019-03-29T20:31:50.702Z,15.13
2019-03-29T20:35:00.401Z,21.27
2019-03-29T20:37:50.356Z,14.47
2019-03-29T20:40:39.996Z,15.53
2019-03-29T20:43:29.594Z,14.23
2019-03-29T20:46:00.674Z,15.23
2019-03-29T20:48:50.045Z,15.47
2019-03-29T20:51:39.668Z,17.80
2019-03-29T20:54:29.866Z,16.03
2019-03-29T20:57:01.098Z,16.33
2019-03-29T20:59:50.689Z,20.40
2019-03-29T21:02:40.310Z,14.87
2019-03-29T21:05:29.990Z,18.83
2019-03-29T21:08:20.131Z,16.70
2019-03-29T21:11:09.732Z,17.37
2019-03-29T21:13:59.252Z,14.97
2019-03-29T21:16:49.070Z,16.03
2019-03-29T21:19:39.145Z,17.97
2019-03-29T21:22:28.758Z,19.07
2019-03-29T21:25:20.912Z,16.63
2019-03-29T21:31:18.747Z,18.47
2019-03-29T21:37:22.368Z,17.17
2019-03-29T21:46:20.405Z,20.90
2019-03-29T21:49:09.607Z,17.10
2019-03-29T21:51:39.848Z,17.50
2019-03-29T21:54:29.134Z,16.47
2019-03-29T21:57:10.896Z,19.03
2019-03-29T21:59:52.206Z,21.27
2019-03-29T22:02:33.544Z,22.30
2019-03-29T22:14:45.418Z,19.53
2019-03-29T22:30:26.002Z,21.17
2019-03-29T22:33:15.186Z,19.17
2019-03-29T22:36:04.947Z,23.67
2019-03-29T22:38:55.231Z,20.77
2019-03-29T22:41:44.951Z,17.80
2019-03-29T22:44:15.249Z,24.93
2019-03-29T22:47:04.525Z,22.87
2019-03-29T22:49:53.950Z,23.40
2019-03-29T22:52:35.542Z,24.27
2019-03-29T22:55:17.350Z,20.47
2019-03-29T22:57:58.827Z,22.10
2019-03-29T23:00:53.001Z,22.03
2019-03-29T23:03:42.982Z,22.77
2019-03-29T23:06:32.709Z,21.43
2019-03-29T23:09:22.135Z,23.23
2019-03-29T23:12:04.410Z,20.83
2019-03-29T23:14:46.560Z,23.07
2019-03-29T23:17:28.197Z,19.90
2019-03-29T23:20:10.165Z,19.90
2019-03-29T23:22:52.442Z,18.97
2019-03-29T23:25:34.366Z,22.03
2019-03-29T23:28:16.450Z,20.40
2019-03-29T23:30:58.068Z,19.97
2019-03-29T23:33:40.213Z,19.27
2019-03-29T23:36:22.486Z,20.40
2019-03-29T23:39:04.397Z,21.87
2019-03-29T23:41:46.334Z,19.53
2019-03-29T23:44:17.075Z,21.97
2019-03-29T23:47:08.996Z,20.90
2019-03-29T23:49:58.874Z,21.30
2019-03-29T23:52:48.535Z,20.53
2019-03-29T23:55:38.036Z,23.10
2019-03-29T23:58:27.959Z,22.83
